Nearby METAR Reports

 

KORH - Worcester, Massachusetts, USA
Distance from station: NW 4mi, 7km
Updated: Sun, 23-Feb-2020 12:54am EST
Clear
Clear
 Wind from W
Wind: W 13 mph , 20 km/h, Gust: 26 mph , 43 km/h
Temperature: 32°F , 0°C
Wind Chill: 22°F , -6°C
Dew Point: 18°F , -8°C
Humidity: 55%
Barometer: 30.10 inHg , 1019.3 hPa
Clouds: Clear
Visibility: 10 miles , 16 km
2020/02/23 05:54 KORH 230554Z 26011G23KT 10SM CLR 00/M08 A3010 RMK AO2 SLP204 T00001083 10017 20000 58001 $
KBOS - Boston, Massachusetts, USA
Distance from station: ENE 42mi, 68km
Updated: Sun, 23-Feb-2020 12:54am EST
Clear
Clear
 Wind from SW
Wind: SW 8 mph , 13 km/h
Temperature: 36°F , 2°C
Wind Chill: 30°F , -1°C
Dew Point: 18°F , -8°C
Humidity: 48%
Barometer: 30.15 inHg , 1021 hPa
Clouds: Clear
Visibility: 10 miles , 16 km
2020/02/23 05:54 KBOS 230554Z 22007KT 10SM CLR 02/M08 A3015 RMK AO2 SLP210 T00221083 10067 20022 53000
 
KCQX - Chatham, Massachusetts, USA
Distance from station: SE 102mi, 164km
Updated: Sun, 23-Feb-2020 12:52am EST
Clear
Clear
 Wind from WSW
Wind: WSW 3 mph , 6 km/h
Temperature: 30°F , -1°C
Dew Point: 19°F , -7°C
Humidity: 64%
Barometer: 30.18 inHg , 1022 hPa
Clouds: Clear
Visibility: 10 miles , 16 km
2020/02/23 05:52 KCQX 230552Z AUTO 24003KT 10SM CLR M01/M07 A3018 RMK AO2 SLP220 T10061067 10028 21006 56002
KMVY - Marthas Vineyard, Massachusetts, USA
Distance from station: SE 84mi, 135km
Updated: Sun, 23-Feb-2020 12:53am EST
Clear
Clear
 Wind from SW
Wind: SW 3 mph , 6 km/h
Temperature: 25°F , -4°C
Dew Point: 21°F , -6°C
Humidity: 86%
Barometer: 30.18 inHg , 1022 hPa
Clouds: Clear
Visibility: 10 miles , 16 km
2020/02/23 05:53 KMVY 230553Z AUTO 23003KT 10SM CLR M04/M06 A3018 RMK AO2 SLP218 T10391056 10039 21039 58003
 
KPVC - Provincetown, Massachusetts, USA
Distance from station: NNW 85mi, 136km
Updated: Sun, 23-Feb-2020 12:56am EST
Clear
Clear
 Wind from W
Wind: W 10 mph , 17 km/h
Temperature: 36°F , 2°C
Wind Chill: 29°F , -2°C
Dew Point: 25°F , -4°C
Humidity: 65%
Barometer: 30.17 inHg , 1021.7 hPa
Clouds: Clear
Visibility: 10 miles , 16 km
2020/02/23 05:56 KPVC 230556Z AUTO 26009KT 10SM CLR 02/M04 A3017 RMK AO2 SLP214 T00221039 10044 20006 56001 FZRANO
KAQW - Savoy, Massachusetts, USA
Distance from station: NNW 66mi, 106km
Updated: Sun, 23-Feb-2020 12:52am EST
Clear
Clear
 Wind from calm
Wind: Calm
Temperature: 21°F , -6°C
Dew Point: 18°F , -8°C
Humidity: 86%
Barometer: 30.15 inHg , 1021 hPa
Clouds: Clear
Visibility: 10 miles , 16 km
2020/02/23 05:52 KAQW 230552Z AUTO 00000KT 10SM CLR M06/M08 A3015 RMK AO2 SLP218 T10561078 10006 21056 55005
 
KIZG - Fryeburg, Maine, USA
Distance from station: NNE 133mi, 214km
Updated: Sun, 23-Feb-2020 12:54am EST
Clear
Clear
 Wind from W
Wind: W 3 mph , 6 km/h
Temperature: 21°F , -6°C
Dew Point: 16°F , -9°C
Humidity: 80%
Barometer: 30.08 inHg , 1018.6 hPa
Clouds: Clear
Visibility: 10 miles , 16 km
2020/02/23 05:54 KIZG 230554Z AUTO 28003KT 10SM CLR M06/M09 A3008 RMK AO2 SLP194 T10611094 10022 21067 51002
KMWN - Mt Washington, New Hampshire, USA
Distance from station: NNE 146mi, 234km
Updated: Sun, 23-Feb-2020 12:55am EST

 Wind from WNW
Wind: WNW 47 mph , 76 km/h
Visibility: 100 miles , 160 km
2020/02/23 05:55 KMWN 230555Z 29041KT 100SM SCT/// FEW250 M09/M14 RMK TPS LWR SCT048 4/013 11094 21127
 
KBML - Berlin, New Hampshire, USA
Distance from station: NNE 160mi, 257km
Updated: Sun, 23-Feb-2020 12:52am EST
Clear
Clear
 Wind from calm
Wind: Calm
Temperature: 10°F , -12°C
Dew Point: 7°F , -14°C
Humidity: 85%
Barometer: 30.07 inHg , 1018.3 hPa
Clouds: Clear
Visibility: 10 miles , 16 km
2020/02/23 05:52 KBML 230552Z AUTO 00000KT 10SM CLR M12/M14 A3007 RMK AO2 SLP202 I6001 T11171144 11033 21122 53005